createdAt,value
2018-12-07T00:00:58.112Z,14
2018-12-07T00:01:58.375Z,14.04
2018-12-07T00:02:58.142Z,14.04
2018-12-07T00:03:58.425Z,14.04
2018-12-07T00:04:58.705Z,14.03
2018-12-07T00:05:58.203Z,14
2018-12-07T00:06:58.499Z,13.99
2018-12-07T00:07:58.502Z,14.07
2018-12-07T00:08:58.529Z,13.95
2018-12-07T00:09:58.568Z,13.99
2018-12-07T00:10:58.658Z,14.04
2018-12-07T00:11:58.344Z,14.04
2018-12-07T00:12:58.417Z,14.05
2018-12-07T00:13:58.894Z,14.03
2018-12-07T00:14:58.401Z,13.97
2018-12-07T00:15:58.419Z,14.03
2018-12-07T00:16:58.694Z,14
2018-12-07T00:17:58.741Z,13.92
2018-12-07T00:18:59.011Z,13.92
2018-12-07T00:19:59.019Z,13.97
2018-12-07T00:20:58.551Z,14
2018-12-07T00:21:58.814Z,13.92
2018-12-07T00:22:58.575Z,13.96
2018-12-07T00:23:58.861Z,13.89
2018-12-07T00:24:58.617Z,13.93
2018-12-07T00:25:58.640Z,13.89
2018-12-07T00:26:58.659Z,13.81
2018-12-07T00:27:58.680Z,13.93
2018-12-07T00:28:58.955Z,13.89
2018-12-07T00:29:58.975Z,13.79
2018-12-07T00:30:59.013Z,13.89
2018-12-07T00:31:59.034Z,13.83
2018-12-07T00:32:59.049Z,13.77
2018-12-07T00:33:59.323Z,13.79
2018-12-07T00:34:59.091Z,13.87
2018-12-07T00:35:58.848Z,13.75
2018-12-07T00:36:59.382Z,13.79
2018-12-07T00:37:59.404Z,13.74
2018-12-07T00:38:59.178Z,13.71
2018-12-07T00:39:58.939Z,13.74
2018-12-07T00:40:59.229Z,13.78
2018-12-07T00:41:59.498Z,13.71
2018-12-07T00:42:58.998Z,13.87
2018-12-07T00:43:59.286Z,13.74
2018-12-07T00:44:59.305Z,13.72
2018-12-07T00:45:59.341Z,13.75
2018-12-07T00:46:59.336Z,13.75
2018-12-07T00:47:59.620Z,13.74
2018-12-07T00:48:59.385Z,13.78
2018-12-07T00:49:59.401Z,13.68
2018-12-07T00:50:59.174Z,13.71
2018-12-07T00:51:59.451Z,13.72
2018-12-07T00:52:59.207Z,13.75
2018-12-07T00:53:59.231Z,13.71
2018-12-07T00:54:59.518Z,13.7
2018-12-07T00:55:59.275Z,13.85
2018-12-07T00:56:59.316Z,13.71
2018-12-07T00:57:59.852Z,13.83
2018-12-07T00:58:59.870Z,13.68
2018-12-07T00:59:59.901Z,13.68
2018-12-07T01:00:59.384Z,13.71
2018-12-07T01:01:59.663Z,13.68
2018-12-07T01:02:59.693Z,13.68
2018-12-07T01:03:59.705Z,13.71
2018-12-07T01:04:59.484Z,13.75
2018-12-07T01:05:59.501Z,13.72
2018-12-07T01:06:59.769Z,13.68
2018-12-07T01:07:59.533Z,13.7
2018-12-07T01:08:59.823Z,13.6
2018-12-07T01:09:59.575Z,13.72
2018-12-07T01:11:00.118Z,13.71
2018-12-07T01:11:59.620Z,13.7
2018-12-07T01:12:59.894Z,13.7
2018-12-07T01:14:00.176Z,13.71
2018-12-07T01:14:59.948Z,13.7
2018-12-07T01:15:59.705Z,13.74
2018-12-07T01:16:59.739Z,13.68
2018-12-07T01:18:00.013Z,13.7
2018-12-07T01:19:00.104Z,13.74
2018-12-07T01:20:00.058Z,13.68
2018-12-07T01:20:59.811Z,13.7
2018-12-07T01:22:00.117Z,13.67
2018-12-07T01:22:59.867Z,13.7
2018-12-07T01:24:00.137Z,13.7
2018-12-07T01:25:00.164Z,13.71
2018-12-07T01:26:00.183Z,13.67
2018-12-07T01:27:00.206Z,13.7
2018-12-07T01:28:00.219Z,13.62
2018-12-07T01:29:00.249Z,13.67
2018-12-07T01:30:00.002Z,13.71
2018-12-07T01:31:00.358Z,13.67
2018-12-07T01:32:00.052Z,13.65
2018-12-07T01:33:00.327Z,13.63
2018-12-07T01:34:00.600Z,13.63
2018-12-07T01:35:00.376Z,13.63
2018-12-07T01:36:00.391Z,13.62
2018-12-07T01:37:00.669Z,13.54
2018-12-07T01:38:00.433Z,13.6
2018-12-07T01:39:00.454Z,13.52
2018-12-07T01:40:00.487Z,13.59
2018-12-07T01:41:00.754Z,13.54
2018-12-07T01:42:00.592Z,13.62
2018-12-07T01:43:00.294Z,13.6
2018-12-07T01:44:00.578Z,13.53
2018-12-07T01:45:00.579Z,13.7
2018-12-07T01:46:00.616Z,13.6
2018-12-07T01:47:00.377Z,13.62
2018-12-07T01:48:00.395Z,13.62
2018-12-07T01:49:00.938Z,13.53
2018-12-07T01:50:00.697Z,13.6
2018-12-07T01:51:00.480Z,13.65
2018-12-07T01:52:00.740Z,13.59
2018-12-07T01:53:00.766Z,13.54
2018-12-07T01:54:00.782Z,13.53
2018-12-07T01:55:00.539Z,13.6
2018-12-07T01:56:00.557Z,13.47
2018-12-07T01:57:00.845Z,13.6
2018-12-07T01:58:00.611Z,13.56
2018-12-07T01:59:00.885Z,13.6
2018-12-07T02:00:00.691Z,13.53
2018-12-07T02:01:00.943Z,13.57
2018-12-07T02:02:01.208Z,13.47
2018-12-07T02:03:00.715Z,13.56
2018-12-07T02:04:00.987Z,13.56
2018-12-07T02:05:00.752Z,13.52
2018-12-07T02:06:01.033Z,13.56
2018-12-07T02:07:01.333Z,13.42
2018-12-07T02:08:01.081Z,13.54
2018-12-07T02:09:01.097Z,13.52
2018-12-07T02:10:00.868Z,13.44
2018-12-07T02:11:00.903Z,13.52
2018-12-07T02:12:01.417Z,13.46
2018-12-07T02:13:00.939Z,13.49
2018-12-07T02:14:01.475Z,13.41
2018-12-07T02:15:00.969Z,13.42
2018-12-07T02:16:01.516Z,13.46
2018-12-07T02:17:01.015Z,13.53
2018-12-07T02:18:01.284Z,13.41
2018-12-07T02:19:01.329Z,13.44
2018-12-07T02:20:01.329Z,13.38
2018-12-07T02:21:01.368Z,13.42
2018-12-07T02:22:01.115Z,13.42
2018-12-07T02:23:01.144Z,13.38
2018-12-07T02:24:01.163Z,13.44
2018-12-07T02:25:01.696Z,13.38
2018-12-07T02:26:01.460Z,13.47
2018-12-07T02:27:03.027Z,13.38
2018-12-07T02:28:01.517Z,13.31
2018-12-07T02:29:01.270Z,13.28
2018-12-07T02:30:01.294Z,13.42
2018-12-07T02:31:01.345Z,13.33
2018-12-07T02:32:01.601Z,13.27
2018-12-07T02:33:01.874Z,13.31
2018-12-07T02:34:01.664Z,13.41
2018-12-07T02:35:01.657Z,13.23
2018-12-07T02:36:01.410Z,13.31
2018-12-07T02:37:01.446Z,13.33
2018-12-07T02:38:01.721Z,13.28
2018-12-07T02:39:01.741Z,13.3
2018-12-07T02:40:01.505Z,13.22
2018-12-07T02:41:01.787Z,13.33
2018-12-07T02:42:01.806Z,13.37
2018-12-07T02:43:01.826Z,13.28
2018-12-07T02:44:01.844Z,13.22
2018-12-07T02:45:01.868Z,13.27
2018-12-07T02:46:01.636Z,13.33
2018-12-07T02:47:01.903Z,13.3
2018-12-07T02:48:01.988Z,13.28
2018-12-07T02:49:01.701Z,13.27
2018-12-07T02:50:01.985Z,13.28
2018-12-07T02:51:01.988Z,13.3
2018-12-07T02:52:02.282Z,13.33
2018-12-07T02:53:01.780Z,13.13
2018-12-07T02:54:02.056Z,13.3
2018-12-07T02:55:02.097Z,13.27
2018-12-07T02:56:02.109Z,13.13
2018-12-07T02:57:01.859Z,13.33
2018-12-07T02:58:02.151Z,13.33
2018-12-07T02:59:01.912Z,13.22
2018-12-07T03:00:02.203Z,13.23
2018-12-07T03:01:02.205Z,13.2
2018-12-07T03:02:02.231Z,13.25
2018-12-07T03:03:02.266Z,13.25
2018-12-07T03:04:02.264Z,13.16
2018-12-07T03:05:02.573Z,13.2
2018-12-07T03:06:02.335Z,13.2
2018-12-07T03:07:02.085Z,13.19
2018-12-07T03:08:02.096Z,13.22
2018-12-07T03:09:02.120Z,13.19
2018-12-07T03:10:02.410Z,13.25
2018-12-07T03:11:02.174Z,13.27
2018-12-07T03:12:02.183Z,13.2
2018-12-07T03:13:02.474Z,13.19
2018-12-07T03:14:02.481Z,13.19
2018-12-07T03:15:02.242Z,13.28
2018-12-07T03:16:02.533Z,13.28
2018-12-07T03:17:02.557Z,13.22
2018-12-07T03:18:02.582Z,13.16
2018-12-07T03:19:02.849Z,13.22
2018-12-07T03:20:02.627Z,13.25
2018-12-07T03:21:02.630Z,13.16
2018-12-07T03:22:02.412Z,13.2
2018-12-07T03:23:03.016Z,13.15
2018-12-07T03:24:02.962Z,13.2
2018-12-07T03:25:02.980Z,13.23
2018-12-07T03:26:02.750Z,13.23
2018-12-07T03:27:02.773Z,13.19
2018-12-07T03:28:03.046Z,13.25
2018-12-07T03:29:02.548Z,13.2
2018-12-07T03:30:02.825Z,13.2
2018-12-07T03:31:03.133Z,13.19
2018-12-07T03:32:02.734Z,13.18
2018-12-07T03:33:02.889Z,13.18
2018-12-07T03:34:04.665Z,13.23
2018-12-07T03:35:02.671Z,13.18
2018-12-07T03:36:02.702Z,13.16
2018-12-07T03:37:02.736Z,13.15
2018-12-07T03:38:02.741Z,13.22
2018-12-07T03:39:02.763Z,13.22
2018-12-07T03:40:02.791Z,13.19
2018-12-07T03:41:03.051Z,13.15
2018-12-07T03:42:03.347Z,13.2
2018-12-07T03:43:03.094Z,13.23
2018-12-07T03:44:02.871Z,13.12
2018-12-07T03:45:03.137Z,13.18
2018-12-07T03:46:02.912Z,13.11
2018-12-07T03:47:03.194Z,13.16
2018-12-07T03:48:03.479Z,13.18
2018-12-07T03:49:03.498Z,13.16
2018-12-07T03:50:03.626Z,13.09
2018-12-07T03:51:03.540Z,13.2
2018-12-07T03:52:03.296Z,13.15
2018-12-07T03:53:03.047Z,13.19
2018-12-07T03:54:03.078Z,13.16
2018-12-07T03:55:03.361Z,13.15
2018-12-07T03:56:03.375Z,13.15
2018-12-07T03:57:03.141Z,13.16
2018-12-07T03:58:03.166Z,13.15
2018-12-07T03:59:03.434Z,13.16
2018-12-07T04:00:03.717Z,13.2
2018-12-07T04:01:03.244Z,13.16
2018-12-07T04:02:03.771Z,13.19
2018-12-07T04:03:03.530Z,13.19
2018-12-07T04:04:03.294Z,13.27
2018-12-07T04:05:03.580Z,13.19
2018-12-07T04:06:03.844Z,13.25
2018-12-07T04:07:03.862Z,13.13
2018-12-07T04:08:03.628Z,13.22
2018-12-07T04:09:03.658Z,13.2
2018-12-07T04:10:03.422Z,13.15
2018-12-07T04:11:03.971Z,13.15
2018-12-07T04:12:03.715Z,13.22
2018-12-07T04:13:03.479Z,13.19
2018-12-07T04:14:03.516Z,13.16
2018-12-07T04:15:03.526Z,13.16
2018-12-07T04:16:03.542Z,13.19
2018-12-07T04:17:03.829Z,13.25
2018-12-07T04:18:03.836Z,13.16
2018-12-07T04:19:03.857Z,13.12
2018-12-07T04:20:04.153Z,13.2
2018-12-07T04:21:04.185Z,13.22
2018-12-07T04:22:03.676Z,13.27
2018-12-07T04:23:04.203Z,13.2
2018-12-07T04:24:03.983Z,13.15
2018-12-07T04:25:03.737Z,13.11
2018-12-07T04:26:03.751Z,13.03
2018-12-07T04:27:04.028Z,13.18
2018-12-07T04:28:04.056Z,13.16
2018-12-07T04:29:03.828Z,13.12
2018-12-07T04:30:04.368Z,13.12
2018-12-07T04:31:03.861Z,13.13
2018-12-07T04:32:03.877Z,13.15
2018-12-07T04:33:04.155Z,13.12
2018-12-07T04:34:04.184Z,13.11
2018-12-07T04:35:04.197Z,13.09
2018-12-07T04:36:11.955Z,13.12
2018-12-07T04:37:04.514Z,13.09
2018-12-07T04:38:04.020Z,13.08
2018-12-07T04:39:04.285Z,13.08
2018-12-07T04:40:04.313Z,13.15
2018-12-07T04:41:04.330Z,13.13
2018-12-07T04:42:04.112Z,13.09
2018-12-07T04:43:04.364Z,13.05
2018-12-07T04:44:04.403Z,13.09
2018-12-07T04:45:04.161Z,13.09
2018-12-07T04:46:04.439Z,13.11
2018-12-07T04:47:04.449Z,13.09
2018-12-07T04:48:04.214Z,13.08
2018-12-07T04:49:04.503Z,13.08
2018-12-07T04:50:04.538Z,13.09
2018-12-07T04:51:04.279Z,13.05
2018-12-07T04:52:04.297Z,13.13
2018-12-07T04:53:04.579Z,13.09
2018-12-07T04:54:04.603Z,13.05
2018-12-07T04:55:04.361Z,13.12
2018-12-07T04:56:04.652Z,13.08
2018-12-07T04:57:04.686Z,13.04
2018-12-07T04:58:04.436Z,13.09
2018-12-07T04:59:04.989Z,13.03
2018-12-07T05:00:04.729Z,13.05
2018-12-07T05:01:04.747Z,13.08
2018-12-07T05:02:04.793Z,13.12
2018-12-07T05:03:04.792Z,13.08
2018-12-07T05:04:04.821Z,13
2018-12-07T05:05:04.842Z,13.13
2018-12-07T05:06:05.125Z,13.03
2018-12-07T05:07:04.885Z,13.11
2018-12-07T05:08:04.896Z,13.08
2018-12-07T05:09:04.935Z,13.08
2018-12-07T05:10:04.950Z,13.08
2018-12-07T05:11:05.249Z,13.11
2018-12-07T05:12:04.989Z,13.05
2018-12-07T05:13:05.017Z,13.05
2018-12-07T05:14:05.026Z,13.04
2018-12-07T05:15:05.305Z,13
2018-12-07T05:16:05.322Z,13.13
2018-12-07T05:17:05.094Z,13.11
2018-12-07T05:18:05.112Z,13.13
2018-12-07T05:19:04.869Z,13.11
2018-12-07T05:20:05.400Z,13.09
2018-12-07T05:21:05.178Z,13.05
2018-12-07T05:22:05.199Z,13.11
2018-12-07T05:23:05.209Z,13.04
2018-12-07T05:24:05.506Z,13.12
2018-12-07T05:25:04.996Z,13.13
2018-12-07T05:26:05.019Z,13.16
2018-12-07T05:27:05.043Z,13.05
2018-12-07T05:28:05.070Z,13.03
2018-12-07T05:29:05.349Z,13.12
2018-12-07T05:30:05.367Z,13.15
2018-12-07T05:31:05.979Z,13.13
2018-12-07T05:32:05.417Z,13.09
2018-12-07T05:33:05.173Z,13.05
2018-12-07T05:34:05.704Z,13.13
2018-12-07T05:35:05.724Z,13.01
2018-12-07T05:36:05.739Z,13.01
2018-12-07T05:37:05.525Z,13.05
2018-12-07T05:38:05.556Z,13.12
2018-12-07T05:39:05.541Z,13.09
2018-12-07T05:40:05.563Z,13.08
2018-12-07T05:41:05.852Z,13.03
2018-12-07T05:42:05.368Z,13.11
2018-12-07T05:43:05.647Z,13.11
2018-12-07T05:44:05.663Z,13.09
2018-12-07T05:45:05.784Z,13.04
2018-12-07T05:46:05.438Z,13.12
2018-12-07T05:47:05.462Z,13.11
2018-12-07T05:48:05.731Z,13.12
2018-12-07T05:49:06.029Z,13.09
2018-12-07T05:50:05.521Z,13.04
2018-12-07T05:51:05.547Z,13.03
2018-12-07T05:52:05.824Z,13.12
2018-12-07T05:53:05.593Z,13.11
2018-12-07T05:54:05.870Z,13.12
2018-12-07T05:55:05.949Z,13.15
2018-12-07T05:56:05.900Z,13.13
2018-12-07T05:57:05.922Z,13.11
2018-12-07T05:58:05.697Z,13.04
2018-12-07T05:59:06.237Z,13.13
2018-12-07T06:00:05.997Z,13.11
2018-12-07T06:01:05.757Z,13.15
2018-12-07T06:02:06.040Z,13.05
2018-12-07T06:03:06.322Z,13.09
2018-12-07T06:04:05.825Z,13.08
2018-12-07T06:05:06.092Z,13.12
2018-12-07T06:06:06.380Z,13.12
2018-12-07T06:07:05.877Z,13.09
2018-12-07T06:08:06.147Z,13.01
2018-12-07T06:09:06.433Z,13.09
2018-12-07T06:10:06.210Z,13.01
2018-12-07T06:11:05.954Z,13.05
2018-12-07T06:12:06.244Z,13.09
2018-12-07T06:13:06.017Z,13.09
2018-12-07T06:14:06.550Z,13.09
2018-12-07T06:15:06.585Z,13.05
2018-12-07T06:16:06.326Z,13.12
2018-12-07T06:17:06.618Z,13.08
2018-12-07T06:18:06.386Z,13.08
2018-12-07T06:19:06.391Z,13.04
2018-12-07T06:20:06.414Z,13.03
2018-12-07T06:21:06.165Z,13.03
2018-12-07T06:22:06.448Z,13
2018-12-07T06:23:06.467Z,13.04
2018-12-07T06:24:06.495Z,13.05
2018-12-07T06:25:06.269Z,13.08
2018-12-07T06:26:06.536Z,13.04
2018-12-07T06:27:08.317Z,13.11
2018-12-07T06:28:06.827Z,13.03
2018-12-07T06:29:06.601Z,13.08
2018-12-07T06:30:06.626Z,13.01
2018-12-07T06:31:06.633Z,13.01
2018-12-07T06:32:06.400Z,13.05
2018-12-07T06:33:06.428Z,13.08
2018-12-07T06:34:06.709Z,13.05
2018-12-07T06:35:06.719Z,13.03
2018-12-07T06:36:06.747Z,13.09
2018-12-07T06:37:06.768Z,13.09
2018-12-07T06:38:06.795Z,13.05
2018-12-07T06:39:06.812Z,13.01
2018-12-07T06:40:06.825Z,13.01
2018-12-07T06:41:06.843Z,13.01
2018-12-07T06:42:06.881Z,13.05
2018-12-07T06:43:06.892Z,13.08
2018-12-07T06:44:06.917Z,13.09
2018-12-07T06:45:06.938Z,13.03
2018-12-07T06:46:06.955Z,13.09
2018-12-07T06:47:06.720Z,13.11
2018-12-07T06:48:07.016Z,13.13
2018-12-07T06:49:07.021Z,13
2018-12-07T06:50:07.053Z,13.09
2018-12-07T06:51:07.057Z,13.12
2018-12-07T06:52:06.821Z,13.12
2018-12-07T06:53:07.111Z,13.22
2018-12-07T06:54:07.385Z,13.15
2018-12-07T06:55:07.419Z,13.19
2018-12-07T06:56:07.166Z,13.18
2018-12-07T06:57:06.934Z,13.11
2018-12-07T06:58:06.963Z,13.19
2018-12-07T06:59:07.228Z,13.15
2018-12-07T07:00:07.258Z,13.15
2018-12-07T07:01:07.532Z,13.13
2018-12-07T07:02:07.309Z,13.16
2018-12-07T07:03:07.053Z,13.23
2018-12-07T07:04:07.326Z,13.15
2018-12-07T07:05:07.102Z,13.12
2018-12-07T07:06:07.381Z,13.16
2018-12-07T07:07:07.579Z,13.23
2018-12-07T07:08:07.682Z,13.23
2018-12-07T07:09:07.441Z,13.16
2018-12-07T07:10:07.200Z,13.13
2018-12-07T07:11:07.223Z,13.13
2018-12-07T07:12:07.787Z,13.19
2018-12-07T07:13:07.786Z,13.25
2018-12-07T07:14:07.290Z,13.2
2018-12-07T07:15:07.566Z,13.22
2018-12-07T07:16:07.329Z,13.19
2018-12-07T07:17:07.885Z,13.15
2018-12-07T07:18:07.639Z,13.15
2018-12-07T07:19:07.386Z,13.15
2018-12-07T07:20:07.420Z,13.19
2018-12-07T07:21:07.951Z,13.12
2018-12-07T07:22:07.458Z,13.12
2018-12-07T07:23:07.743Z,13.2
2018-12-07T07:24:07.501Z,13.19
2018-12-07T07:25:07.524Z,13.08
2018-12-07T07:26:07.817Z,13.11
2018-12-07T07:27:07.821Z,13.08
2018-12-07T07:28:07.842Z,13.09
2018-12-07T07:29:07.595Z,13.13
2018-12-07T07:30:07.873Z,13.05
2018-12-07T07:31:07.928Z,13.15
2018-12-07T07:32:07.658Z,13.13
2018-12-07T07:33:07.948Z,13.11
2018-12-07T07:34:07.714Z,13.12
2018-12-07T07:35:08.000Z,13.12
2018-12-07T07:36:08.005Z,13.05
2018-12-07T07:37:08.046Z,13.08
2018-12-07T07:38:07.782Z,13.15
2018-12-07T07:39:07.812Z,13.13
2018-12-07T07:40:08.090Z,13.09
2018-12-07T07:41:08.359Z,13.16
2018-12-07T07:42:08.134Z,13.08
2018-12-07T07:43:08.485Z,13.15
2018-12-07T07:44:08.172Z,13.19
2018-12-07T07:45:08.210Z,13.16
2018-12-07T07:46:08.210Z,13.12
2018-12-07T07:47:08.248Z,13.08
2018-12-07T07:48:08.000Z,13.09
2018-12-07T07:49:08.026Z,13.11
2018-12-07T07:50:08.295Z,13.04
2018-12-07T07:51:08.318Z,13.09
2018-12-07T07:52:08.603Z,13.05
2018-12-07T07:53:08.355Z,13.13
2018-12-07T07:54:08.389Z,13.01
2018-12-07T07:55:08.408Z,13.15
2018-12-07T07:56:15.092Z,13.09
2018-12-07T07:57:08.450Z,13.12
2018-12-07T07:58:08.211Z,13.09
2018-12-07T07:59:08.231Z,13.01
2018-12-07T08:00:08.245Z,13.12
2018-12-07T08:01:08.792Z,13.12
2018-12-07T08:02:08.542Z,13.03
2018-12-07T08:03:08.568Z,13.04
2018-12-07T08:04:08.597Z,13.04
2018-12-07T08:05:08.372Z,13.04
2018-12-07T08:06:08.379Z,13.03
2018-12-07T08:07:08.666Z,13.12
2018-12-07T08:08:08.679Z,13.03
2018-12-07T08:09:08.437Z,13.08
2018-12-07T08:10:08.997Z,13.13
2018-12-07T08:11:08.473Z,13.09
2018-12-07T08:12:08.788Z,13.09
2018-12-07T08:13:08.777Z,13.12
2018-12-07T08:14:08.558Z,13.09
2018-12-07T08:15:08.834Z,13.18
2018-12-07T08:16:08.586Z,13.09
2018-12-07T08:17:09.118Z,13.13
2018-12-07T08:18:09.133Z,13.15
2018-12-07T08:19:08.648Z,13.08
2018-12-07T08:20:08.665Z,13.12
2018-12-07T08:21:08.952Z,13.11
2018-12-07T08:22:08.975Z,13.19
2018-12-07T08:23:14.595Z,13.19
2018-12-07T08:24:09.021Z,13.16
2018-12-07T08:25:08.769Z,13.13
2018-12-07T08:26:09.045Z,13.16
2018-12-07T08:27:09.341Z,13.2
2018-12-07T08:28:09.354Z,13.2
2018-12-07T08:29:08.902Z,13.23
2018-12-07T08:30:08.887Z,13.25
2018-12-07T08:31:08.894Z,13.23
2018-12-07T08:32:09.436Z,13.28
2018-12-07T08:33:09.199Z,13.27
2018-12-07T08:34:08.968Z,13.33
2018-12-07T08:35:09.507Z,13.27
2018-12-07T08:36:09.011Z,13.23
2018-12-07T08:37:09.281Z,13.39
2018-12-07T08:38:09.309Z,13.3
2018-12-07T08:39:09.322Z,13.25
2018-12-07T08:40:09.356Z,13.35
2018-12-07T08:41:09.371Z,13.28
2018-12-07T08:42:11.300Z,13.37
2018-12-07T08:43:09.424Z,13.39
2018-12-07T08:44:09.209Z,13.27
2018-12-07T08:45:09.466Z,13.3
2018-12-07T08:46:09.487Z,13.28
2018-12-07T08:47:09.502Z,13.35
2018-12-07T08:48:09.258Z,13.37
2018-12-07T08:49:09.532Z,13.37
2018-12-07T08:50:09.827Z,13.3
2018-12-07T08:51:09.578Z,13.42
2018-12-07T08:52:09.592Z,13.39
2018-12-07T08:53:09.359Z,13.39
2018-12-07T08:54:09.639Z,13.41
2018-12-07T08:55:09.657Z,13.31
2018-12-07T08:56:09.424Z,13.38
2018-12-07T08:57:09.457Z,13.41
2018-12-07T08:58:09.462Z,13.42
2018-12-07T08:59:09.742Z,13.39
2018-12-07T09:00:09.762Z,13.38
2018-12-07T09:01:10.053Z,13.38
2018-12-07T09:02:09.565Z,13.42
2018-12-07T09:03:09.829Z,13.44
2018-12-07T09:04:09.595Z,13.35
2018-12-07T09:05:09.888Z,13.46
2018-12-07T09:06:10.167Z,13.49
2018-12-07T09:07:09.918Z,13.46
2018-12-07T09:08:17.540Z,13.5
2018-12-07T09:09:09.969Z,13.39
2018-12-07T09:10:10.235Z,13.5
2018-12-07T09:11:10.009Z,13.49
2018-12-07T09:12:10.011Z,13.49
2018-12-07T09:13:10.035Z,13.47
2018-12-07T09:14:10.062Z,13.47
2018-12-07T09:15:10.081Z,13.44
2018-12-07T09:16:09.858Z,13.44
2018-12-07T09:17:10.122Z,13.49
2018-12-07T09:18:10.242Z,13.42
2018-12-07T09:19:10.429Z,13.47
2018-12-07T09:20:09.932Z,13.52
2018-12-07T09:21:10.456Z,13.49
2018-12-07T09:22:10.232Z,13.5
2018-12-07T09:23:10.515Z,13.44
2018-12-07T09:24:10.281Z,13.49
2018-12-07T09:25:10.568Z,13.41
2018-12-07T09:26:10.061Z,13.46
2018-12-07T09:27:10.339Z,13.44
2018-12-07T09:28:10.607Z,13.44
2018-12-07T09:29:10.633Z,13.49
2018-12-07T09:30:10.178Z,13.46
2018-12-07T09:31:10.170Z,13.47
2018-12-07T09:32:10.189Z,13.44
2018-12-07T09:33:10.731Z,13.44
2018-12-07T09:34:10.475Z,13.42
2018-12-07T09:35:10.521Z,13.39
2018-12-07T09:36:10.264Z,13.44
2018-12-07T09:37:10.558Z,13.53
2018-12-07T09:38:17.508Z,13.44
2018-12-07T09:39:10.580Z,13.46
2018-12-07T09:40:10.891Z,13.42
2018-12-07T09:41:10.891Z,13.42
2018-12-07T09:42:10.647Z,13.49
2018-12-07T09:43:10.663Z,13.41
2018-12-07T09:44:10.427Z,13.46
2018-12-07T09:45:10.965Z,13.46
2018-12-07T09:46:10.731Z,13.41
2018-12-07T09:47:10.493Z,13.46
2018-12-07T09:48:10.518Z,13.38
2018-12-07T09:49:10.794Z,13.49
2018-12-07T09:50:10.818Z,13.44
2018-12-07T09:51:10.580Z,13.44
2018-12-07T09:52:11.121Z,13.52
2018-12-07T09:53:10.873Z,13.46
2018-12-07T09:54:10.635Z,13.47
2018-12-07T09:55:10.670Z,13.46
2018-12-07T09:56:11.195Z,13.44
2018-12-07T09:57:10.960Z,13.46
2018-12-07T09:58:10.723Z,13.46
2018-12-07T09:59:11.270Z,13.54
2018-12-07T10:00:10.777Z,13.46
2018-12-07T10:01:10.798Z,13.56
2018-12-07T10:02:11.064Z,13.56
2018-12-07T10:03:11.339Z,13.56
2018-12-07T10:04:11.124Z,13.47
2018-12-07T10:05:11.446Z,13.57
2018-12-07T10:06:10.905Z,13.59
2018-12-07T10:07:11.173Z,13.59
2018-12-07T10:08:11.450Z,13.53
2018-12-07T10:09:11.223Z,13.57
2018-12-07T10:10:11.267Z,13.56
2018-12-07T10:11:11.527Z,13.5
2018-12-07T10:12:11.015Z,13.56
2018-12-07T10:13:12.768Z,13.49
2018-12-07T10:14:11.332Z,13.52
2018-12-07T10:15:11.080Z,13.54
2018-12-07T10:16:11.365Z,13.57
2018-12-07T10:17:11.132Z,13.54
2018-12-07T10:18:11.416Z,13.62
2018-12-07T10:19:11.684Z,13.59
2018-12-07T10:20:11.444Z,13.59
2018-12-07T10:21:11.212Z,13.67
2018-12-07T10:22:11.240Z,13.62
2018-12-07T10:23:11.263Z,13.68
2018-12-07T10:24:11.279Z,13.57
2018-12-07T10:25:11.573Z,13.67
2018-12-07T10:26:11.580Z,13.59
2018-12-07T10:27:11.859Z,13.59
2018-12-07T10:28:11.625Z,13.68
2018-12-07T10:29:11.634Z,13.63
2018-12-07T10:30:11.675Z,13.62
2018-12-07T10:31:11.417Z,13.7
2018-12-07T10:32:11.438Z,13.72
2018-12-07T10:33:11.728Z,13.68
2018-12-07T10:34:11.495Z,13.67
2018-12-07T10:35:11.576Z,13.65
2018-12-07T10:36:11.791Z,13.68
2018-12-07T10:37:11.801Z,13.67
2018-12-07T10:38:11.820Z,13.67
2018-12-07T10:39:11.850Z,13.72
2018-12-07T10:40:11.872Z,13.67
2018-12-07T10:41:11.887Z,13.74
2018-12-07T10:42:11.919Z,13.67
2018-12-07T10:43:11.675Z,13.68
2018-12-07T10:44:11.960Z,13.7
2018-12-07T10:45:11.970Z,13.62
2018-12-07T10:46:11.737Z,13.68
2018-12-07T10:47:12.010Z,13.67
2018-12-07T10:48:11.776Z,13.68
2018-12-07T10:49:12.311Z,13.67
2018-12-07T10:50:11.823Z,13.68
2018-12-07T10:51:13.053Z,13.71
2018-12-07T10:52:11.859Z,13.67
2018-12-07T10:53:12.154Z,13.67
2018-12-07T10:54:12.164Z,13.59
2018-12-07T10:55:12.513Z,13.68
2018-12-07T10:56:12.206Z,13.71
2018-12-07T10:57:12.223Z,13.68
2018-12-07T10:58:12.526Z,13.65
2018-12-07T10:59:12.277Z,13.7
2018-12-07T11:00:12.551Z,13.68
2018-12-07T11:01:12.062Z,13.7
2018-12-07T11:02:12.075Z,13.7
2018-12-07T11:03:12.609Z,13.7
2018-12-07T11:04:12.369Z,13.68
2018-12-07T11:05:12.402Z,13.67
2018-12-07T11:06:12.671Z,13.65
2018-12-07T11:07:12.448Z,13.67
2018-12-07T11:08:12.458Z,13.68
2018-12-07T11:09:12.732Z,13.71
2018-12-07T11:10:12.239Z,13.6
2018-12-07T11:11:12.517Z,13.7
2018-12-07T11:12:12.541Z,13.67
2018-12-07T11:13:12.561Z,13.71
2018-12-07T11:14:12.577Z,13.63
2018-12-07T11:15:12.401Z,13.72
2018-12-07T11:16:12.373Z,13.71
2018-12-07T11:17:12.386Z,13.72
2018-12-07T11:18:12.692Z,13.71
2018-12-07T11:19:12.428Z,13.77
2018-12-07T11:20:12.466Z,13.72
2018-12-07T11:21:12.487Z,13.81
2018-12-07T11:22:12.759Z,13.77
2018-12-07T11:23:12.523Z,13.78
2018-12-07T11:24:12.800Z,13.71
2018-12-07T11:25:12.809Z,13.79
2018-12-07T11:26:12.848Z,13.71
2018-12-07T11:27:13.126Z,13.72
2018-12-07T11:28:13.148Z,13.7
2018-12-07T11:29:13.169Z,13.74
2018-12-07T11:30:12.679Z,13.71
2018-12-07T11:31:12.683Z,13.72
2018-12-07T11:32:12.958Z,13.72
2018-12-07T11:33:12.986Z,13.75
2018-12-07T11:34:13.268Z,13.77
2018-12-07T11:35:12.777Z,13.71
2018-12-07T11:36:12.827Z,13.77
2018-12-07T11:37:13.064Z,13.72
2018-12-07T11:38:13.095Z,13.81
2018-12-07T11:39:15.132Z,13.83
2018-12-07T11:40:13.402Z,13.86
2018-12-07T11:41:13.151Z,13.74
2018-12-07T11:42:12.913Z,13.72
2018-12-07T11:43:12.944Z,13.77
2018-12-07T11:44:13.220Z,13.85
2018-12-07T11:45:12.995Z,13.78
2018-12-07T11:46:13.530Z,13.74
2018-12-07T11:47:13.031Z,13.72
2018-12-07T11:48:13.312Z,13.77
2018-12-07T11:49:13.321Z,13.83
2018-12-07T11:50:13.613Z,13.79
2018-12-07T11:51:13.644Z,13.74
2018-12-07T11:52:13.388Z,13.74
2018-12-07T11:53:13.159Z,13.72
2018-12-07T11:54:13.438Z,13.83
2018-12-07T11:55:13.446Z,13.71
2018-12-07T11:56:13.470Z,13.7
2018-12-07T11:57:13.502Z,13.75
2018-12-07T11:58:13.526Z,13.75
2018-12-07T11:59:13.272Z,13.74
2018-12-07T12:00:13.558Z,13.78
2018-12-07T12:01:13.320Z,13.68
2018-12-07T12:02:13.390Z,13.7
2018-12-07T12:03:13.374Z,13.77
2018-12-07T12:04:13.648Z,13.71
2018-12-07T12:05:13.662Z,13.75
2018-12-07T12:06:13.942Z,13.85
2018-12-07T12:07:13.959Z,13.74
2018-12-07T12:08:13.725Z,13.71
2018-12-07T12:09:13.486Z,13.71
2018-12-07T12:10:13.552Z,13.72
2018-12-07T12:11:13.543Z,13.71
2018-12-07T12:12:13.560Z,13.75
2018-12-07T12:13:13.576Z,13.72
2018-12-07T12:14:13.850Z,13.83
2018-12-07T12:15:13.627Z,13.75
2018-12-07T12:16:14.231Z,13.85
2018-12-07T12:17:14.180Z,13.7
2018-12-07T12:18:13.937Z,13.81
2018-12-07T12:19:13.700Z,13.85
2018-12-07T12:20:13.725Z,13.74
2018-12-07T12:21:13.998Z,13.79
2018-12-07T12:22:14.026Z,13.79
2018-12-07T12:23:13.796Z,13.83
2018-12-07T12:24:14.071Z,13.75
2018-12-07T12:25:13.824Z,13.72
2018-12-07T12:26:13.853Z,13.83
2018-12-07T12:27:13.872Z,13.63
2018-12-07T12:28:14.156Z,13.72
2018-12-07T12:29:14.164Z,13.79
2018-12-07T12:30:14.456Z,13.71
2018-12-07T12:31:13.959Z,13.7
2018-12-07T12:32:14.244Z,13.68
2018-12-07T12:33:13.998Z,13.71
2018-12-07T12:34:14.283Z,13.6
2018-12-07T12:35:14.555Z,13.63
2018-12-07T12:36:21.591Z,13.77
2018-12-07T12:37:14.352Z,13.71
2018-12-07T12:38:14.097Z,13.6
2018-12-07T12:39:14.382Z,13.63
2018-12-07T12:40:14.400Z,13.72
2018-12-07T12:41:14.158Z,13.71
2018-12-07T12:42:14.202Z,13.72
2018-12-07T12:43:14.262Z,13.71
2018-12-07T12:44:14.226Z,13.72
2018-12-07T12:45:14.264Z,13.68
2018-12-07T12:46:14.788Z,13.65
2018-12-07T12:47:14.545Z,13.68
2018-12-07T12:48:14.588Z,13.71
2018-12-07T12:49:14.338Z,13.68
2018-12-07T12:50:14.868Z,13.65
2018-12-07T12:51:14.378Z,13.71
2018-12-07T12:52:14.651Z,13.7
2018-12-07T12:53:14.691Z,13.71
2018-12-07T12:54:14.947Z,13.68
2018-12-07T12:55:14.736Z,13.71
2018-12-07T12:56:14.736Z,13.6